Time;durP1;ratioP1;P1;durP2;ratioP2;P2;SDS_P1;SDS_P2;PMS_P1;PMS_P2;Temp;Humidity;BMP_temperature;BMP_pressure;BME280_temperature;BME280_humidity;BME280_pressure;Samples;Min_cycle;Max_cycle;Signal;HPM_P1;HPM_P2
2022/04/16 00:01:11;;;;;;;5.30;4.90;;;;;;;6.47;100.00;97916.47;4927169;28;20390;-55
2022/04/16 00:03:41;;;;;;;5.00;4.70;;;;;;;6.52;100.00;97908.97;4903973;28;20219;-55
2022/04/16 00:06:10;;;;;;;5.43;5.03;;;;;;;6.59;100.00;97922.44;4910976;28;20443;-56
2022/04/16 00:08:38;;;;;;;5.47;5.00;;;;;;;6.61;100.00;97923.94;4927635;28;20300;-56
2022/04/16 00:11:07;;;;;;;5.50;5.00;;;;;;;6.61;100.00;97918.66;4895189;28;20512;-55
2022/04/16 00:13:36;;;;;;;5.63;5.23;;;;;;;6.66;100.00;97916.47;4927676;28;20297;-57
2022/04/16 00:16:06;;;;;;;5.60;5.20;;;;;;;6.74;100.00;97913.09;4923433;28;20996;-54
2022/04/16 00:18:35;;;;;;;4.53;4.23;;;;;;;6.76;100.00;97915.63;4901098;28;20235;-61
2022/04/16 00:21:04;;;;;;;5.87;5.17;;;;;;;6.75;100.00;97913.94;4910783;28;20291;-56
2022/04/16 00:23:32;;;;;;;5.03;4.70;;;;;;;6.73;100.00;97897.47;4927558;28;20269;-58
2022/04/16 00:26:02;;;;;;;4.83;4.43;;;;;;;6.83;100.00;97914.06;4921275;28;20264;-58
2022/04/16 00:28:31;;;;;;;5.20;4.80;;;;;;;6.86;100.00;97908.50;4899840;28;20355;-57
2022/04/16 00:31:00;;;;;;;5.10;4.63;;;;;;;6.92;100.00;97907.13;4922129;28;20731;-59
2022/04/16 00:33:29;;;;;;;5.83;5.40;;;;;;;6.91;100.00;97908.91;4927067;28;20211;-60
2022/04/16 00:35:57;;;;;;;4.80;4.50;;;;;;;6.98;100.00;97909.19;4888505;28;21757;-56
2022/04/16 00:38:25;;;;;;;5.17;4.70;;;;;;;6.98;100.00;97903.06;4921238;28;20976;-58
2022/04/16 00:40:53;;;;;;;4.80;4.40;;;;;;;6.97;100.00;97910.16;4924327;28;20315;-58
2022/04/16 00:43:23;;;;;;;4.77;4.37;;;;;;;7.05;100.00;97910.25;4898315;28;20298;-57
2022/04/16 00:45:52;;;;;;;5.00;4.60;;;;;;;7.02;100.00;97904.47;4922028;28;20245;-56
2022/04/16 00:48:22;;;;;;;4.70;4.30;;;;;;;7.06;100.00;97904.03;4923184;28;20204;-56
2022/04/16 00:50:52;;;;;;;4.83;4.43;;;;;;;7.01;100.00;97889.59;4892995;28;20306;-57
2022/04/16 00:53:20;;;;;;;3.97;3.67;;;;;;;7.02;100.00;97891.28;4918646;28;20258;-56
2022/04/16 00:55:49;;;;;;;3.77;3.57;;;;;;;7.08;100.00;97901.25;4927047;28;20315;-57
2022/04/16 00:58:17;;;;;;;4.10;3.80;;;;;;;7.15;100.00;97893.59;4926046;28;20322;-55
2022/04/16 01:00:45;;;;;;;3.80;3.50;;;;;;;7.11;100.00;97906.22;4898581;28;20212;-56
2022/04/16 01:03:14;;;;;;;3.73;3.43;;;;;;;7.13;100.00;97900.81;4928030;28;20314;-53
2022/04/16 01:05:43;;;;;;;3.73;3.53;;;;;;;7.14;100.00;97905.09;4905912;28;20235;-58
2022/04/16 01:08:11;;;;;;;4.03;3.73;;;;;;;7.10;100.00;97907.22;4912934;28;20294;-58
2022/04/16 01:10:39;;;;;;;3.30;3.10;;;;;;;7.10;100.00;97913.28;4929773;28;20620;-57
2022/04/16 01:13:08;;;;;;;3.70;3.40;;;;;;;7.08;100.00;97919.69;4905226;28;20797;-57
2022/04/16 01:15:39;;;;;;;3.33;3.13;;;;;;;7.10;100.00;97907.22;4897525;28;20237;-59
2022/04/16 01:18:07;;;;;;;3.23;3.03;;;;;;;7.07;100.00;97903.03;4915871;28;20231;-59
2022/04/16 01:20:38;;;;;;;3.67;3.40;;;;;;;7.12;100.00;97904.41;4897392;28;20820;-58
2022/04/16 01:23:09;;;;;;;3.83;3.53;;;;;;;7.09;100.00;97909.00;4902490;28;20208;-56
2022/04/16 01:25:37;;;;;;;4.03;3.73;;;;;;;7.12;100.00;97905.25;4927020;28;20540;-56
2022/04/16 01:28:06;;;;;;;3.63;3.37;;;;;;;7.20;100.00;97910.63;4927903;28;20235;-58
2022/04/16 01:30:35;;;;;;;4.17;3.87;;;;;;;7.14;100.00;97907.72;4895144;28;20378;-58
2022/04/16 01:33:03;;;;;;;4.30;4.00;;;;;;;7.16;100.00;97905.78;4925333;28;20623;-57
2022/04/16 01:35:32;;;;;;;4.17;3.87;;;;;;;7.14;100.00;97898.03;4921551;28;20326;-58
2022/04/16 01:38:02;;;;;;;4.10;3.80;;;;;;;7.15;100.00;97906.75;4882247;28;20943;-54
2022/04/16 01:40:31;;;;;;;4.83;4.43;;;;;;;7.13;100.00;97896.38;4921827;28;20212;-53
2022/04/16 01:43:00;;;;;;;5.37;4.97;;;;;;;7.15;100.00;97898.84;4922179;28;20294;-58
2022/04/16 01:45:29;;;;;;;5.60;5.23;;;;;;;7.12;100.00;97909.69;4920194;28;20252;-57
2022/04/16 01:47:59;;;;;;;5.47;5.07;;;;;;;7.13;100.00;97903.44;4878983;28;20223;-57
2022/04/16 01:50:27;;;;;;;4.97;4.67;;;;;;;7.11;100.00;97906.22;4921532;28;20210;-60
2022/04/16 01:52:55;;;;;;;5.30;4.90;;;;;;;7.12;100.00;97909.69;4897822;28;20216;-58
2022/04/16 01:55:24;;;;;;;5.17;4.77;;;;;;;7.20;100.00;97912.44;4904750;28;20239;-57
2022/04/16 01:57:53;;;;;;;5.10;4.77;;;;;;;7.17;100.00;97912.72;4930071;28;20297;-57
2022/04/16 02:00:23;;;;;;;5.80;5.30;;;;;;;7.14;100.00;97907.72;4925608;28;20430;-55
2022/04/16 02:02:51;;;;;;;5.30;4.90;;;;;;;7.16;100.00;97903.16;4895397;28;20306;-60
2022/04/16 02:05:19;;;;;;;4.90;4.50;;;;;;;7.13;100.00;97901.66;4896992;28;20231;-58
2022/04/16 02:07:48;;;;;;;5.27;4.87;;;;;;;7.07;100.00;97902.22;4901060;28;20206;-59
2022/04/16 02:10:17;;;;;;;4.70;4.40;;;;;;;7.13;100.00;97901.66;4902753;28;20990;-59
2022/04/16 02:12:45;;;;;;;4.77;4.47;;;;;;;7.09;100.00;97897.66;4927278;28;20270;-59
2022/04/16 02:15:15;;;;;;;5.10;4.70;;;;;;;7.04;100.00;97897.25;4928494;28;20231;-58
2022/04/16 02:17:44;;;;;;;5.57;5.07;;;;;;;7.12;100.00;97896.50;4889082;28;20263;-59
2022/04/16 02:20:12;;;;;;;5.13;4.63;;;;;;;7.08;100.00;97895.97;4924599;28;20666;-58
2022/04/16 02:22:42;;;;;;;4.60;4.30;;;;;;;7.09;100.00;97905.56;4926960;28;20214;-60
2022/04/16 02:25:13;;;;;;;4.60;4.30;;;;;;;7.07;100.00;97900.41;4871312;28;20341;-57
2022/04/16 02:27:41;;;;;;;5.00;4.60;;;;;;;7.07;100.00;97900.41;4925850;28;20215;-59
2022/04/16 02:30:11;;;;;;;4.23;3.83;;;;;;;7.01;100.00;97905.41;4922796;28;20313;-59
2022/04/16 02:32:44;;;;;;;4.10;3.70;;;;;;;7.01;100.00;97901.00;4895588;28;20694;-58
2022/04/16 02:35:14;;;;;;;4.17;3.83;;;;;;;6.93;100.00;97898.25;4922992;28;20635;-59
2022/04/16 02:37:43;;;;;;;3.90;3.67;;;;;;;6.96;100.00;97897.97;4916913;28;20699;-57
2022/04/16 02:40:12;;;;;;;4.90;4.50;;;;;;;6.93;100.00;97901.69;4895362;28;21269;-55
2022/04/16 02:42:42;;;;;;;4.53;4.23;;;;;;;6.91;100.00;97901.00;4898831;28;20221;-59
2022/04/16 02:47:59;;;;;;;4.20;3.90;;;;;;;6.87;100.00;97899.63;4883049;28;20549;-58
2022/04/16 02:50:28;;;;;;;4.50;3.87;;;;;;;6.85;100.00;97906.84;4926568;28;20481;-58
2022/04/16 02:52:58;;;;;;;4.17;3.90;;;;;;;6.95;100.00;97905.00;4926182;28;20765;-56
2022/04/16 02:55:26;;;;;;;3.53;3.33;;;;;;;6.96;100.00;97900.59;4923435;28;20682;-58
2022/04/16 02:57:54;;;;;;;3.57;3.37;;;;;;;6.95;100.00;97893.66;4885793;28;20235;-57
2022/04/16 03:00:23;;;;;;;3.73;3.53;;;;;;;6.91;100.00;97895.75;4926582;28;20313;-57
2022/04/16 03:02:51;;;;;;;3.73;3.43;;;;;;;6.85;100.00;97883.16;4918537;28;20321;-59
2022/04/16 03:05:20;;;;;;;3.80;3.47;;;;;;;6.84;100.00;97897.28;4890404;28;20787;-57
2022/04/16 03:07:50;;;;;;;3.73;3.53;;;;;;;6.88;100.00;97903.13;4922263;28;20256;-57
2022/04/16 03:10:18;;;;;;;4.10;3.50;;;;;;;6.83;100.00;97910.63;4925165;28;20200;-59
2022/04/16 03:12:47;;;;;;;3.63;3.43;;;;;;;6.77;100.00;97906.75;4893094;28;20223;-59
2022/04/16 03:18:02;;;;;;;3.67;3.43;;;;;;;6.85;100.00;97917.38;4925854;28;20315;-55
2022/04/16 03:20:32;;;;;;;3.47;3.27;;;;;;;6.79;100.00;97910.06;4889804;28;20290;-57
2022/04/16 03:23:02;;;;;;;4.10;3.80;;;;;;;6.89;100.00;97915.31;4920435;28;20304;-58
2022/04/16 03:25:30;;;;;;;4.00;3.70;;;;;;;6.88;100.00;97909.19;4925743;28;20754;-58
2022/04/16 03:27:58;;;;;;;3.83;3.40;;;;;;;6.73;100.00;97913.25;4889817;28;20489;-57
2022/04/16 03:30:27;;;;;;;3.17;2.97;;;;;;;6.69;100.00;97909.25;4926364;28;20203;-58
2022/04/16 03:32:55;;;;;;;3.87;3.57;;;;;;;6.75;100.00;97913.94;4920694;28;20334;-58
2022/04/16 03:35:24;;;;;;;3.33;3.13;;;;;;;6.71;100.00;97917.84;4878898;28;20818;-57
2022/04/16 03:37:55;;;;;;;3.40;3.20;;;;;;;6.72;100.00;97914.25;4927491;28;20291;-56
2022/04/16 03:40:26;;;;;;;4.50;4.20;;;;;;;6.68;100.00;97913.69;4923435;28;20866;-55
2022/04/16 03:42:56;;;;;;;4.50;4.10;;;;;;;6.67;100.00;97922.56;4864322;28;20381;-56
2022/04/16 03:45:25;;;;;;;4.73;4.33;;;;;;;6.65;100.00;97924.50;4922249;28;20467;-53
2022/04/16 03:47:55;;;;;;;3.50;3.30;;;;;;;6.71;100.00;97923.13;4925551;28;20304;-57
2022/04/16 03:50:24;;;;;;;4.40;4.00;;;;;;;6.80;100.00;97930.97;4923304;28;20290;-57
2022/04/16 03:52:54;;;;;;;6.83;4.53;;;;;;;6.71;100.00;97921.28;4889155;28;20811;-56
2022/04/16 04:01:08;;;;;;;4.90;4.50;;;;;;;6.61;100.00;97926.56;4869310;29;20363;-57
2022/04/16 04:03:37;;;;;;;5.57;5.07;;;;;;;6.74;100.00;97928.09;4868851;29;20509;-53
2022/04/16 04:06:07;;;;;;;6.07;5.57;;;;;;;6.87;100.00;97931.25;4859978;29;20464;-55
2022/04/16 04:08:37;;;;;;;5.17;4.77;;;;;;;6.87;100.00;97918.06;4856670;29;20852;-55
2022/04/16 04:11:05;;;;;;;6.50;6.00;;;;;;;6.86;100.00;97937.50;4870906;29;20536;-58
2022/04/16 04:13:34;;;;;;;5.72;5.32;;;;;;;6.82;100.00;97930.84;4815609;29;20720;-56
2022/04/16 04:16:02;;;;;;;5.75;5.28;;;;;;;6.79;100.00;97933.75;4872813;29;20456;-57
2022/04/16 04:18:30;;;;;;;6.20;5.60;;;;;;;6.78;100.00;97930.28;4869195;29;20750;-57
2022/04/16 04:20:58;;;;;;;6.20;5.60;;;;;;;6.74;100.00;97933.38;4849087;29;20235;-54
2022/04/16 04:23:26;;;;;;;5.82;5.32;;;;;;;6.79;100.00;97934.59;4833147;29;20636;-60
2022/04/16 04:25:56;;;;;;;5.50;4.70;;;;;;;6.74;100.00;97936.00;4868598;29;20319;-56
2022/04/16 04:28:24;;;;;;;5.13;4.73;;;;;;;6.70;100.00;97937.25;4840863;29;20321;-57
2022/04/16 04:30:52;;;;;;;6.30;5.80;;;;;;;6.66;100.00;97945.44;4842010;29;20725;-61
2022/04/16 04:33:21;;;;;;;5.68;5.28;;;;;;;6.65;100.00;97949.03;4867440;29;20465;-56
2022/04/16 04:35:51;;;;;;;5.33;4.93;;;;;;;6.56;100.00;97946.41;4907863;28;20455;-57
2022/04/16 04:38:19;;;;;;;4.80;4.40;;;;;;;6.57;100.00;97942.81;4889279;28;20214;-58
2022/04/16 04:40:47;;;;;;;5.03;4.50;;;;;;;6.59;100.00;97949.56;4926922;28;20235;-58
2022/04/16 04:43:17;;;;;;;4.63;4.23;;;;;;;6.43;100.00;97942.25;4907648;28;20277;-59
2022/04/16 04:45:48;;;;;;;4.50;4.10;;;;;;;6.47;100.00;97958.59;4890589;28;20242;-58
2022/04/16 04:48:16;;;;;;;4.67;4.23;;;;;;;6.40;100.00;97968.03;4925860;28;20311;-58
2022/04/16 04:50:45;;;;;;;4.70;4.30;;;;;;;6.44;100.00;97966.78;4930560;28;20699;-57
2022/04/16 04:53:13;;;;;;;4.83;4.43;;;;;;;6.46;100.00;97972.72;4892205;28;20286;-57
2022/04/16 04:55:41;;;;;;;3.93;3.67;;;;;;;6.44;100.00;97965.00;4925644;28;20262;-56
2022/04/16 04:58:10;;;;;;;4.00;3.70;;;;;;;6.53;100.00;97973.84;4923152;28;20627;-61
2022/04/16 05:00:39;;;;;;;4.50;4.20;;;;;;;6.43;100.00;97973.00;4905632;28;20521;-58
2022/04/16 05:03:08;;;;;;;4.90;4.50;;;;;;;6.42;100.00;97972.16;4888817;28;20414;-59
2022/04/16 05:05:36;;;;;;;4.43;4.03;;;;;;;6.51;100.00;97976.63;4931467;28;20524;-59
2022/04/16 05:08:05;;;;;;;4.73;4.40;;;;;;;6.45;100.00;97981.59;4899400;28;20283;-60
2022/04/16 05:10:33;;;;;;;4.10;3.80;;;;;;;6.49;100.00;97985.63;4889460;28;20692;-55
2022/04/16 05:13:01;;;;;;;4.80;4.40;;;;;;;6.40;100.00;97979.38;4902562;28;20242;-58
2022/04/16 05:15:30;;;;;;;3.73;3.53;;;;;;;6.50;100.00;97990.75;4883858;28;20231;-53
2022/04/16 05:17:59;;;;;;;4.83;4.53;;;;;;;6.52;100.00;97987.97;4899859;28;20211;-56
2022/04/16 05:20:28;;;;;;;3.97;3.67;;;;;;;6.44;100.00;97988.69;4923875;28;20853;-57
2022/04/16 05:22:56;;;;;;;4.23;3.93;;;;;;;6.47;100.00;97991.03;4902978;28;20220;-58
2022/04/16 05:25:24;;;;;;;4.33;4.03;;;;;;;6.48;100.00;97992.69;4887285;28;20712;-53
2022/04/16 05:27:52;;;;;;;4.17;3.87;;;;;;;6.49;100.00;97998.78;4927493;28;20274;-55
2022/04/16 05:30:29;;;;;;;4.07;3.77;;;;;;;6.49;100.00;97997.00;4906575;28;20703;-50
2022/04/16 05:33:02;;;;;;;4.63;4.23;;;;;;;6.44;100.00;97995.72;4897006;28;20725;-58
2022/04/16 05:35:32;;;;;;;4.23;3.93;;;;;;;6.45;100.00;98006.13;4923371;28;20519;-57
2022/04/16 05:38:00;;;;;;;4.57;4.23;;;;;;;6.47;100.00;98013.88;4927034;28;20210;-56
2022/04/16 05:40:29;;;;;;;5.43;4.93;;;;;;;6.36;100.00;98014.84;4888369;28;20861;-55
2022/04/16 05:42:57;;;;;;;5.10;4.60;;;;;;;6.40;100.00;98012.78;4922549;28;20240;-55
2022/04/16 05:45:26;;;;;;;5.47;4.60;;;;;;;6.34;100.00;98015.00;4902085;28;20354;-55
2022/04/16 05:47:54;;;;;;;5.30;4.80;;;;;;;6.35;100.00;98018.44;4888756;28;20216;-57
2022/04/16 05:50:22;;;;;;;5.17;4.67;;;;;;;6.27;100.00;98016.50;4927825;28;20262;-58
2022/04/16 05:52:53;;;;;;;5.20;4.70;;;;;;;6.32;100.00;98023.97;4914843;28;20313;-57
2022/04/16 05:55:21;;;;;;;5.73;5.23;;;;;;;6.27;100.00;98034.94;4921344;28;20331;-54
2022/04/16 05:57:49;;;;;;;5.30;4.80;;;;;;;6.19;100.00;98038.22;4892159;28;20728;-55
2022/04/16 06:00:18;;;;;;;5.63;5.13;;;;;;;6.21;100.00;98033.66;4908034;28;20445;-58
2022/04/16 06:02:46;;;;;;;4.83;4.40;;;;;;;6.31;100.00;98038.94;4893410;28;20222;-53
2022/04/16 06:05:15;;;;;;;5.10;4.70;;;;;;;6.32;100.00;98032.72;4923508;28;20429;-54
2022/04/16 06:07:43;;;;;;;5.67;5.10;;;;;;;6.36;100.00;98038.53;4926805;28;20732;-56
2022/04/16 06:10:13;;;;;;;6.10;5.60;;;;;;;6.33;100.00;98042.28;4908787;28;20619;-56
2022/04/16 06:12:42;;;;;;;5.90;5.40;;;;;;;6.32;100.00;98045.88;4897646;28;20348;-56
2022/04/16 06:15:10;;;;;;;6.30;5.73;;;;;;;6.47;100.00;98048.09;4908175;28;20587;-54
2022/04/16 06:17:38;;;;;;;5.87;5.37;;;;;;;6.48;100.00;98049.78;4926437;28;20703;-55
2022/04/16 06:20:08;;;;;;;5.87;5.23;;;;;;;6.35;100.00;98058.78;4888472;28;20582;-56
2022/04/16 06:22:36;;;;;;;6.00;5.23;;;;;;;6.34;100.00;98058.88;4923957;28;20737;-55
2022/04/16 06:25:05;;;;;;;8.67;6.03;;;;;;;6.41;100.00;98060.00;4903897;28;20559;-56
2022/04/16 06:27:39;;;;;;;7.50;6.27;;;;;;;6.29;100.00;98067.22;4912737;28;20211;-56
2022/04/16 06:30:09;;;;;;;7.17;6.47;;;;;;;6.30;100.00;98068.88;4915922;28;20241;-56
2022/04/16 06:32:37;;;;;;;6.67;5.90;;;;;;;6.36;100.00;98070.97;4910870;28;20226;-57
2022/04/16 06:35:06;;;;;;;8.73;7.23;;;;;;;6.26;100.00;98069.25;4905806;28;20473;-56
2022/04/16 06:37:35;;;;;;;6.30;5.80;;;;;;;6.28;100.00;98070.81;4919987;28;20212;-54
2022/04/16 06:40:05;;;;;;;6.43;5.83;;;;;;;6.42;100.00;98081.91;4910038;28;20299;-57
2022/04/16 06:42:33;;;;;;;6.23;5.73;;;;;;;6.51;100.00;98074.03;4922843;28;20688;-56
2022/04/16 06:45:03;;;;;;;5.50;5.00;;;;;;;6.42;100.00;98087.19;4896211;28;20275;-57
2022/04/16 06:47:31;;;;;;;7.37;6.67;;;;;;;6.30;100.00;98086.44;4905762;28;20207;-55
2022/04/16 06:50:00;;;;;;;5.87;5.37;;;;;;;6.30;100.00;98091.72;4881887;28;20322;-56
2022/04/16 06:52:28;;;;;;;5.43;4.93;;;;;;;6.20;100.00;98089.88;4927723;28;20242;-58
2022/04/16 06:54:57;;;;;;;5.90;5.50;;;;;;;6.25;100.00;98097.41;4910676;28;21001;-58
2022/04/16 06:57:25;;;;;;;5.57;5.07;;;;;;;6.24;100.00;98098.34;4925630;28;20218;-58
2022/04/16 07:00:00;;;;;;;6.88;6.25;;;;;;;6.26;100.00;98106.97;4895512;28;21381;-57
2022/04/16 07:02:30;;;;;;;6.07;5.53;;;;;;;6.22;100.00;98097.63;4927850;28;20384;-57
2022/04/16 07:04:59;;;;;;;11.55;10.57;;;;;;;6.24;100.00;98106.22;4908850;28;20457;-55
2022/04/16 07:07:27;;;;;;;6.53;5.93;;;;;;;6.13;100.00;98101.06;4899379;28;20215;-54
2022/04/16 07:09:55;;;;;;;5.93;5.40;;;;;;;6.24;100.00;98103.59;4923327;28;20314;-58
2022/04/16 07:12:23;;;;;;;6.93;6.27;;;;;;;6.20;100.00;98110.94;4921623;28;20302;-59
2022/04/16 07:14:52;;;;;;;6.90;5.67;;;;;;;6.29;100.00;98117.22;4905893;28;20266;-60
2022/04/16 07:17:21;;;;;;;9.37;5.20;;;;;;;6.44;100.00;98112.41;4894848;28;20696;-60
2022/04/16 07:19:50;;;;;;;5.77;5.27;;;;;;;6.46;100.00;98115.75;4901363;28;20294;-59
2022/04/16 07:22:19;;;;;;;6.47;5.87;;;;;;;6.66;100.00;98128.94;4907222;28;20250;-59
2022/04/16 07:24:48;;;;;;;6.67;5.97;;;;;;;6.70;100.00;98116.34;4917283;28;20661;-57
2022/04/16 07:29:58;;;;;;;5.73;5.30;;;;;;;6.92;100.00;98121.34;5313034;23;20244;-58
2022/04/16 07:32:26;;;;;;;6.93;6.03;;;;;;;7.18;100.00;98114.69;4912682;28;20237;-54
2022/04/16 07:34:56;;;;;;;6.63;5.90;;;;;;;7.47;100.00;98114.69;4933996;28;20210;-58
2022/04/16 07:37:24;;;;;;;6.30;5.80;;;;;;;7.45;100.00;98115.78;4927883;28;20660;-57
2022/04/16 07:39:53;;;;;;;5.30;4.90;;;;;;;7.13;100.00;98111.63;4945797;28;20230;-55
2022/04/16 07:42:21;;;;;;;5.90;5.40;;;;;;;7.09;100.00;98111.09;4934396;28;20228;-55
2022/04/16 07:44:49;;;;;;;5.93;5.43;;;;;;;6.99;100.00;98116.38;4947863;28;20209;-56
2022/04/16 07:47:17;;;;;;;5.20;4.80;;;;;;;7.21;100.00;98111.78;4919352;28;20362;-57
2022/04/16 07:49:45;;;;;;;5.33;4.93;;;;;;;7.24;100.00;98112.34;4947810;28;20619;-58
2022/04/16 07:52:15;;;;;;;6.03;5.53;;;;;;;7.68;100.00;98103.94;4927338;28;20289;-55
2022/04/16 07:54:43;;;;;;;5.60;5.10;;;;;;;7.42;100.00;98116.06;4945770;28;20243;-57
2022/04/16 07:57:13;;;;;;;5.90;4.97;;;;;;;7.22;100.00;98119.53;4940125;28;20304;-57
2022/04/16 07:59:42;;;;;;;5.53;5.13;;;;;;;7.31;100.00;98115.25;4944887;28;21176;-59
2022/04/16 08:02:10;;;;;;;5.90;5.40;;;;;;;7.15;100.00;98121.09;4918670;28;20511;-59
2022/04/16 08:04:38;;;;;;;5.67;5.17;;;;;;;7.13;100.00;98130.94;4953080;28;20210;-55
2022/04/16 08:07:06;;;;;;;5.37;4.67;;;;;;;6.86;100.00;98142.16;4922284;28;22688;-57
2022/04/16 08:09:36;;;;;;;5.70;5.20;;;;;;;6.71;100.00;98129.34;4949206;28;20324;-57
2022/04/16 08:12:05;;;;;;;5.67;5.17;;;;;;;6.95;100.00;98126.34;4946801;28;20531;-57
2022/04/16 08:14:33;;;;;;;6.43;5.80;;;;;;;7.14;100.00;98134.38;4939359;28;20423;-56
2022/04/16 08:17:02;;;;;;;6.27;5.77;;;;;;;7.16;100.00;98129.81;4941432;28;20211;-54
2022/04/16 08:19:30;;;;;;;5.30;4.83;;;;;;;7.20;100.00;98147.84;4924864;28;20327;-55
2022/04/16 08:21:58;;;;;;;5.43;4.93;;;;;;;7.18;100.00;98136.63;4920148;28;20198;-55
2022/04/16 08:24:41;;;;;;;6.80;5.43;;;;;;;7.27;100.00;98145.50;4944349;28;20450;-55
2022/04/16 08:27:11;;;;;;;5.30;4.80;;;;;;;7.15;100.00;98147.44;4945212;28;20210;-55
2022/04/16 08:29:39;;;;;;;5.60;5.10;;;;;;;7.04;100.00;98144.94;4935680;28;20335;-56
2022/04/16 08:32:08;;;;;;;5.13;4.63;;;;;;;7.18;100.00;98146.31;4946689;28;20320;-54
2022/04/16 08:34:52;;;;;;;5.73;4.23;;;;;;;7.53;100.00;98152.81;4920037;28;20206;-57
2022/04/16 08:37:20;;;;;;;4.33;4.03;;;;;;;7.65;100.00;98159.63;4946203;28;20203;-56
2022/04/16 08:39:48;;;;;;;4.73;4.33;;;;;;;7.70;100.00;98161.81;4920129;28;20349;-58
2022/04/16 08:42:18;;;;;;;5.07;4.67;;;;;;;7.97;100.00;98147.03;4945959;28;20242;-55
2022/04/16 08:44:47;;;;;;;5.03;4.63;;;;;;;7.85;100.00;98149.00;4948177;28;20200;-58
2022/04/16 08:47:15;;;;;;;5.10;4.70;;;;;;;8.20;100.00;98157.25;4943566;28;20676;-56
2022/04/16 08:49:45;;;;;;;5.20;4.27;;;;;;;8.39;100.00;98143.16;4917831;28;20239;-55
2022/04/16 08:52:13;;;;;;;4.70;4.30;;;;;;;8.48;100.00;98155.47;4944454;28;20205;-57
2022/04/16 08:54:41;;;;;;;4.30;4.00;;;;;;;8.29;100.00;98161.66;4925908;28;20865;-58
2022/04/16 08:57:09;;;;;;;4.20;3.90;;;;;;;7.97;100.00;98163.72;4948181;28;20425;-58
2022/04/16 08:59:39;;;;;;;4.10;3.80;;;;;;;7.88;100.00;98174.31;4945223;28;20242;-56
2022/04/16 09:02:08;;;;;;;4.10;3.80;;;;;;;7.55;100.00;98179.06;4934029;28;20230;-57
2022/04/16 09:04:36;;;;;;;4.47;4.07;;;;;;;7.38;100.00;98173.50;4948445;28;20620;-57
2022/04/16 09:07:05;;;;;;;4.23;3.93;;;;;;;7.20;100.00;98182.13;4921687;28;20349;-55
2022/04/16 09:09:34;;;;;;;6.73;6.23;;;;;;;7.27;100.00;98185.03;4949327;28;20305;-55
2022/04/16 09:12:02;;;;;;;4.53;4.23;;;;;;;7.31;100.00;98189.06;4918167;28;20241;-53
2022/04/16 09:14:35;;;;;;;5.00;4.60;;;;;;;7.51;100.00;98194.31;4952023;28;20341;-57
2022/04/16 09:17:08;;;;;;;5.30;4.80;;;;;;;7.60;100.00;98195.28;4934656;28;20218;-59
2022/04/16 09:19:37;;;;;;;4.80;4.33;;;;;;;7.68;100.00;98188.34;4947051;28;20233;-56
2022/04/16 09:22:05;;;;;;;5.17;4.77;;;;;;;7.60;100.00;98201.41;4920785;28;20222;-58
2022/04/16 09:24:46;;;;;;;4.80;4.40;;;;;;;7.72;100.00;98202.06;4951229;28;20203;-56
2022/04/16 09:27:14;;;;;;;4.80;4.50;;;;;;;7.80;100.00;98201.38;4932228;28;20214;-57
2022/04/16 09:29:44;;;;;;;5.20;4.73;;;;;;;7.97;100.00;98186.63;4949583;28;20247;-59
2022/04/16 09:32:24;;;;;;;5.33;4.83;;;;;;;8.36;100.00;98188.34;4933633;28;21009;-56
2022/04/16 09:34:53;;;;;;;5.03;4.63;;;;;;;8.58;100.00;98194.22;4944419;28;20272;-57
2022/04/16 09:37:24;;;;;;;5.07;4.67;;;;;;;8.91;100.00;98189.34;4920335;28;20269;-58
2022/04/16 09:39:52;;;;;;;4.53;4.23;;;;;;;9.10;100.00;98180.44;4945769;28;20824;-58
2022/04/16 09:42:27;;;;;;;4.70;4.27;;;;;;;9.69;99.18;98190.56;4923011;28;20238;-59
2022/04/16 09:44:55;;;;;;;4.40;4.00;;;;;;;9.78;90.18;98197.56;4945137;28;20209;-56
2022/04/16 09:47:26;;;;;;;4.40;4.10;;;;;;;9.58;91.95;98204.00;4935896;28;20269;-57
2022/04/16 09:49:55;;;;;;;4.43;4.10;;;;;;;9.36;90.17;98190.28;4945926;28;20257;-59
2022/04/16 09:52:24;;;;;;;4.57;4.20;;;;;;;9.00;95.64;98198.19;4923516;28;20207;-59
2022/04/16 09:54:54;;;;;;;4.67;4.27;;;;;;;9.32;88.99;98195.03;4942368;28;20242;-58
2022/04/16 09:57:27;;;;;;;4.40;4.10;;;;;;;9.49;86.62;98190.72;4925297;28;20226;-57
2022/04/16 09:59:56;;;;;;;3.67;3.47;;;;;;;9.80;81.34;98185.03;4942031;28;20273;-56
2022/04/16 10:02:27;;;;;;;4.40;3.97;;;;;;;10.07;86.50;98182.38;4935289;28;20783;-54
2022/04/16 10:04:55;;;;;;;4.50;4.13;;;;;;;10.29;75.47;98183.66;4944096;28;20209;-57
2022/04/16 10:07:24;;;;;;;4.20;3.90;;;;;;;10.31;64.22;98179.03;4916311;28;20263;-58
2022/04/16 10:09:54;;;;;;;3.80;3.50;;;;;;;10.44;61.89;98177.81;4942770;28;20651;-57
2022/04/16 10:15:13;;;;;;;3.73;3.43;;;;;;;10.57;64.75;98176.38;4922231;28;21050;-57
2022/04/16 10:17:49;;;;;;;3.37;3.17;;;;;;;10.81;60.10;98174.00;4946616;28;20207;-57
2022/04/16 10:20:18;;;;;;;3.70;3.50;;;;;;;11.05;57.40;98177.66;4937428;28;20277;-57
2022/04/16 10:22:53;;;;;;;3.90;3.10;;;;;;;10.37;55.03;98173.09;4916352;28;20317;-57
2022/04/16 10:25:31;;;;;;;3.37;3.17;;;;;;;9.70;56.99;98169.22;4948899;28;20543;-59
2022/04/16 10:28:05;;;;;;;3.70;3.50;;;;;;;9.14;59.79;98175.69;4944310;28;20229;-55
2022/04/16 10:30:38;;;;;;;3.67;3.47;;;;;;;9.29;60.92;98163.59;4924829;28;20237;-58
2022/04/16 10:33:21;;;;;;;3.37;3.17;;;;;;;9.25;62.27;98171.00;4932002;28;21326;-57
2022/04/16 10:35:50;;;;;;;3.23;3.07;;;;;;;9.21;63.50;98185.50;4945678;28;20289;-59
2022/04/16 10:38:22;;;;;;;3.70;3.40;;;;;;;9.47;64.30;98183.91;4919368;28;20617;-55
2022/04/16 10:40:57;;;;;;;3.17;2.97;;;;;;;9.82;65.04;98188.34;4941465;28;20257;-54
2022/04/16 10:43:33;;;;;;;3.70;3.40;;;;;;;9.92;64.11;98177.66;4949670;28;20206;-59
2022/04/16 10:46:05;;;;;;;3.70;3.40;;;;;;;10.03;61.04;98181.84;4918214;28;20462;-57
2022/04/16 10:48:36;;;;;;;3.13;2.93;;;;;;;10.45;63.22;98177.66;4935463;28;20304;-55
2022/04/16 10:51:05;;;;;;;2.80;2.60;;;;;;;10.66;56.66;98165.81;4940586;28;20329;-54
2022/04/16 10:53:34;;;;;;;3.10;2.90;;;;;;;10.73;52.96;98160.69;4919654;28;20226;-59
2022/04/16 10:56:13;;;;;;;3.30;3.00;;;;;;;11.10;53.97;98170.06;4946093;28;20273;-55
2022/04/16 10:58:42;;;;;;;3.10;2.90;;;;;;;11.21;55.31;98159.16;4945755;28;20633;-56
2022/04/16 11:01:11;;;;;;;2.93;2.73;;;;;;;10.92;53.19;98159.56;4922564;28;20441;-57
2022/04/16 11:03:46;;;;;;;2.97;2.77;;;;;;;11.21;51.27;98171.56;4946081;28;21109;-56
2022/04/16 11:06:15;;;;;;;3.10;2.90;;;;;;;11.27;51.37;98170.91;4938201;28;20209;-54
2022/04/16 11:08:45;;;;;;;3.33;3.13;;;;;;;11.44;50.40;98164.63;4937816;28;20678;-56
2022/04/16 11:11:15;;;;;;;3.03;2.60;;;;;;;11.19;50.51;98168.25;4935161;28;20217;-54
2022/04/16 11:13:44;;;;;;;2.63;2.43;;;;;;;11.31;51.82;98166.13;4948584;28;20234;-55
2022/04/16 11:16:12;;;;;;;2.70;2.50;;;;;;;11.02;50.53;98162.09;4919403;28;20919;-59
2022/04/16 11:18:45;;;;;;;2.43;2.33;;;;;;;11.06;48.70;98166.06;4946667;28;20251;-57
2022/04/16 11:21:17;;;;;;;2.93;2.70;;;;;;;11.06;48.87;98169.56;4934608;28;20285;-56
2022/04/16 11:23:47;;;;;;;2.93;2.73;;;;;;;10.89;46.34;98160.75;4935062;28;20202;-57
2022/04/16 11:34:35;;;;;;;1.87;1.77;;;;;;;11.92;42.29;98161.28;4944688;28;20404;-56
2022/04/16 11:37:25;;;;;;;3.10;2.60;;;;;;;11.82;45.70;98160.63;4930332;28;20722;-52
2022/04/16 11:40:00;;;;;;;2.80;2.60;;;;;;;11.49;46.18;98156.16;4920747;28;20340;-58
2022/04/16 11:42:28;;;;;;;2.10;2.00;;;;;;;11.52;49.10;98171.75;4948434;28;20249;-59
2022/04/16 11:44:56;;;;;;;2.57;2.37;;;;;;;11.43;48.87;98168.28;4946199;28;20210;-57
2022/04/16 11:47:25;;;;;;;2.10;2.00;;;;;;;11.32;42.03;98173.09;4924066;28;20269;-54
2022/04/16 11:49:55;;;;;;;2.20;1.97;;;;;;;11.47;43.15;98174.06;4939382;28;20227;-57
2022/04/16 11:52:26;;;;;;;2.10;2.00;;;;;;;11.48;45.83;98173.06;4931303;28;20219;-53
2022/04/16 11:55:01;;;;;;;2.50;2.30;;;;;;;11.62;45.71;98176.91;4940326;28;20262;-56
2022/04/16 11:57:29;;;;;;;2.47;2.27;;;;;;;11.62;44.59;98176.09;4915617;28;20266;-57
2022/04/16 11:59:58;;;;;;;2.13;2.03;;;;;;;11.86;46.69;98165.44;4943474;28;20595;-55
2022/04/16 12:02:31;;;;;;;2.27;2.17;;;;;;;11.73;45.51;98171.25;4943042;28;20217;-53
2022/04/16 12:05:13;;;;;;;3.10;2.90;;;;;;;12.38;48.59;98181.13;4917666;28;21711;-54
2022/04/16 12:07:44;;;;;;;2.80;2.60;;;;;;;12.54;48.48;98169.63;4936348;28;20690;-57
2022/04/16 12:10:14;;;;;;;2.93;2.73;;;;;;;12.69;45.97;98169.72;4943051;28;20843;-56